• Join FlightAware (Why Join?)
  • Login
  • US Flag 
06:24AM EST


 

Airport Tracker/Info


-or-


 

Live Flight TrackerFlight Track Log ✈ JBU185 ✈ 08-Jul-2013 ✈ KROC - KJFK

Flight Track Log - Related Links

Times and Time Zones

All times are in EDT time to prevent confusion due to time zone crossing. See the JBU185 flight status page for this flight to view local times or setup timezone preferences in your user account.

Time Position Orientation Groundspeed Altitude Reporting Facility
EDT Latitude Longitude Course Direction KTS MPH feet Rate Location/Type
06:12AM 43.0975 -77.6972 121° Southeast 164 189 1,300  Level Cleveland Center
06:13AM 43.0625 -77.7189 204° Southwest 188 216 2,500 1,740 Climbing Cleveland Center
06:14AM 43.0253 -77.6439 124° Southeast 259 298 4,700 2,400 Climbing Cleveland Center
06:16AM 42.9323 -77.2580 127° Southeast  Level FlightAware Approximate
06:16AM 42.9864 -77.5122 112° Southeast 302 348 8,400  Level Cleveland Center
06:17AM 42.8853 -77.1557 114° Southeast  Level FlightAware Approximate
06:18AM 42.8396 -77.0516 121° Southeast  Level FlightAware Approximate
06:18AM 42.9164 -77.2861 113° Southeast 316 364 13,100  Level Boston Center
06:19AM 42.8736 -77.1581 114° Southeast 349 402 15,500 2,340 Climbing Boston Center
06:20AM 42.8314 -77.0217 113° Southeast 372 428 17,800 2,280 Climbing Boston Center
06:21AM 42.7781 -76.8933 119° Southeast 383 441 20,100 1,560 Climbing Boston Center
06:22AM 42.7225 -76.7647 120° Southeast 390 449 21,000 420 Climbing Boston Center
06:23AM 42.6647 -76.6336 121° Southeast 395 455 21,000  Level Boston Center
06:24AM 42.6069 -76.5083 122° Southeast 400 460 21,000  Level Boston Center
06:25AM 42.5489 -76.3778 121° Southeast 400 460 21,000  Level Boston Center
06:26AM 42.4928 -76.2531 121° Southeast 400 460 21,000  Level Boston Center
06:27AM 42.4267 -76.1083 122° Southeast 400 460 21,000  Level Boston Center
06:28AM 42.3681 -75.9811 122° Southeast 405 466 21,000  Level Boston Center
06:29AM 42.3094 -75.8542 122° Southeast 400 460 21,000  Level Boston Center
06:30AM 42.2586 -75.7392 121° Southeast 405 466 21,000  Level Boston Center
06:31AM 42.1881 -75.5814 121° Southeast 405 466 21,000  Level Boston Center
06:32AM 42.1269 -75.4550 123° Southeast 405 466 21,000  Level Boston Center
06:33AM 42.0678 -75.3264 122° Southeast 405 466 21,000  Level Boston Center
06:34AM 42.0294 -75.1878 110° East 399 459 21,000  Level Boston Center
06:35AM 41.9933 -75.0381 108° East 399 459 21,000  Level Boston Center
06:36AM 41.9547 -74.8967 110° East 405 466 21,000  Level Boston Center
06:37AM 41.9142 -74.7472 110° East 410 472 21,000  Level Boston Center
06:38AM 41.8775 -74.6039 109° East 415 478 21,000 -60 Level Boston Center
06:39AM 41.8342 -74.4575 112° Southeast 415 478 20,900 -420 Descending Boston Center
06:40AM 41.7078 -74.3275 142° Southeast 379 436 20,000 -360 Descending New York Center
06:41AM 41.6142 -74.2506 148° Southeast 385 443 20,000  Level New York Center
06:42AM 41.5147 -74.1650 147° Southeast 390 449 20,000  Level New York Center
06:43AM 41.4211 -74.0883 148° Southeast 390 449 20,000  Level New York Center
06:44AM 41.3153 -74.0719 173° South 369 425 20,000 -300 Level New York Center
06:45AM 41.2108 -74.0917 188° South 369 425 19,400 -540 Descending New York Center
06:46AM 41.1000 -74.1000 183° South 371 427 19,000 -240 Descending New York TRACON
06:47AM 41.0000 -74.1167 187° South 362 417 19,000  Level New York TRACON
06:48AM 40.9167 -74.0833 163° South 326 375 19,000 -660 Level New York TRACON
06:49AM 40.8333 -74.0500 163° South 317 365 17,700 -1,440 Descending New York TRACON
06:50AM 40.7500 -74.0167 163° South 307 353 16,300 -1,740 Descending New York TRACON
06:51AM 40.6667 -73.9667 156° South 311 358 14,500 -1,680 Descending New York TRACON
06:52AM 40.6000 -73.9333 159° South 306 352 13,000 -1,680 Descending New York TRACON
06:53AM 40.5167 -73.9000 163° South 291 335 11,200 -1,800 Descending New York TRACON
06:54AM 40.4500 -73.8500 150° Southeast 300 345 9,500 -1,740 Descending New York TRACON
06:55AM 40.4000 -73.7833 135° Southeast 304 350 7,900 -1,680 Descending New York TRACON
06:56AM 40.3500 -73.7000 128° Southeast 295 339 6,400 -1,500 Descending New York TRACON
06:57AM 40.3667 -73.6000 78° East 311 358 4,900 -1,200 Descending New York TRACON
06:58AM 40.4333 -73.5500 30° Northeast 279 321 4,000 -600 Descending New York TRACON
06:59AM 40.5000 -73.5333 11° North 279 321 3,900 -600 Descending New York TRACON
07:00AM 40.5667 -73.5333 360° North 263 303 3,000 -480 Descending New York TRACON
07:01AM 40.6333 -73.5333 360° North 226 260 3,000  Level New York TRACON
07:02AM 40.6833 -73.5333 360° North 191 220 3,000  Level New York TRACON
07:03AM 40.7333 -73.5333 360° North 192 221 3,000  Level New York TRACON
07:04AM 40.7833 -73.5667 333° Northwest 185 213 3,000 -540 Level New York TRACON
07:05AM 40.7833 -73.6333 270° West 180 207 2,000 -540 Descending New York TRACON
07:06AM 40.7500 -73.6667 217° Southwest 186 214 2,000 -300 Level New York TRACON
07:07AM 40.7167 -73.7000 217° Southwest 185 213 1,500 -720 Descending New York TRACON
07:08AM 40.6833 -73.7333 217° Southwest 136 157 700 -840 Descending New York TRACON